Terminal Aerodrome Forecast
Issued by NWS

Home | Current Version | Previous Version | Text Only | Print | Product List | Glossary On
Versions: 1 2 3 4 5 6 7 8 9 10 11 12 13 14 15 16 17 18 19 20
000
FTUS42 KTAE 201100
TAFVLD
TAF
KVLD 201120Z 2012/2112 02008KT P6SM BKN015 OVC025
      TEMPO 2012/2015 OVC010
     FM202100 03007KT P6SM BKN050
     FM210200 05004KT P6SM SKC=

USA.gov is the U.S. government's official web portal to all federal, state and local government web resources and services.